createdAt,value
2022-10-28T00:02:16.793Z,11.93
2022-10-28T00:04:45.371Z,12.10
2022-10-28T00:07:14.056Z,12.20
2022-10-28T00:09:45.668Z,11.73
2022-10-28T00:12:16.129Z,12.32
2022-10-28T00:14:46.442Z,11.98
2022-10-28T00:17:16.838Z,13.15
2022-10-28T00:19:46.243Z,13.35
2022-10-28T00:22:15.803Z,13.02
2022-10-28T00:24:44.468Z,13.15
2022-10-28T00:27:12.809Z,12.82
2022-10-28T00:29:41.523Z,13.25
2022-10-28T00:32:10.416Z,14.40
2022-10-28T00:34:40.324Z,13.43
2022-10-28T00:37:09.833Z,13.52
2022-10-28T00:39:38.469Z,13.70
2022-10-28T00:42:08.970Z,14.63
2022-10-28T00:44:59.458Z,14.52
2022-10-28T00:47:55.750Z,15.35
2022-10-28T00:50:48.446Z,13.98
2022-10-28T00:53:23.870Z,14.65
2022-10-28T00:55:55.353Z,15.05
2022-10-28T00:58:30.503Z,15.00
2022-10-28T01:00:59.333Z,14.85
2022-10-28T01:03:28.335Z,14.55
2022-10-28T01:06:01.075Z,15.18
2022-10-28T01:08:29.788Z,14.48
2022-10-28T01:11:22.814Z,14.48
2022-10-28T01:14:11.511Z,14.70
2022-10-28T01:16:57.343Z,14.73
2022-10-28T01:20:10.173Z,14.95
2022-10-28T01:22:50.731Z,14.77
2022-10-28T01:26:04.129Z,14.88
2022-10-28T01:29:02.377Z,15.68
2022-10-28T01:31:43.827Z,14.43
2022-10-28T01:34:24.598Z,15.48
2022-10-28T01:37:02.359Z,14.80
2022-10-28T01:39:41.250Z,15.10
2022-10-28T01:42:23.774Z,15.43
2022-10-28T01:45:03.195Z,15.43
2022-10-28T01:47:42.223Z,15.38
2022-10-28T01:50:16.985Z,14.13
2022-10-28T01:52:48.828Z,15.45
2022-10-28T01:55:23.034Z,15.57
2022-10-28T01:57:54.664Z,15.32
2022-10-28T02:00:23.169Z,15.80
2022-10-28T02:02:58.851Z,14.18
2022-10-28T02:05:44.529Z,14.32
2022-10-28T02:08:55.571Z,13.55
2022-10-28T02:11:54.497Z,14.25
2022-10-28T02:14:41.702Z,14.48
2022-10-28T02:17:22.671Z,14.77
2022-10-28T02:20:05.850Z,14.55
2022-10-28T02:22:44.601Z,14.85
2022-10-28T02:25:20.422Z,15.85
2022-10-28T02:27:55.145Z,14.93
2022-10-28T02:30:30.340Z,15.10
2022-10-28T02:33:02.930Z,14.93
2022-10-28T02:35:42.542Z,15.13
2022-10-28T02:38:17.063Z,14.52
2022-10-28T02:43:24.359Z,15.18
2022-10-28T02:45:58.221Z,14.98
2022-10-28T02:48:33.950Z,15.63
2022-10-28T02:51:11.158Z,14.40
2022-10-28T02:53:54.353Z,15.82
2022-10-28T02:56:30.697Z,14.55
2022-10-28T02:59:00.733Z,13.73
2022-10-28T03:01:35.777Z,15.40
2022-10-28T03:04:06.645Z,14.98
2022-10-28T03:06:37.541Z,14.75
2022-10-28T03:09:08.206Z,15.23
2022-10-28T03:11:37.044Z,15.55
2022-10-28T03:14:09.605Z,15.70
2022-10-28T03:16:40.683Z,13.90
2022-10-28T03:21:41.933Z,14.70
2022-10-28T03:24:11.038Z,14.50
2022-10-28T03:26:40.196Z,14.48
2022-10-28T03:29:09.214Z,14.48
2022-10-28T03:31:37.699Z,15.05
2022-10-28T03:34:08.061Z,14.82
2022-10-28T03:36:37.400Z,14.05
2022-10-28T03:39:07.831Z,13.10
2022-10-28T03:41:38.005Z,13.48
2022-10-28T03:44:08.879Z,13.40
2022-10-28T03:46:38.446Z,13.23
2022-10-28T03:49:09.942Z,12.68
2022-10-28T03:51:38.972Z,12.90
2022-10-28T03:54:09.360Z,13.35
2022-10-28T03:56:45.559Z,12.07
2022-10-28T03:59:19.263Z,12.27
2022-10-28T04:01:49.191Z,12.25
2022-10-28T04:04:17.741Z,11.52
2022-10-28T04:06:46.516Z,12.82
2022-10-28T04:09:16.843Z,12.43
2022-10-28T04:11:46.541Z,10.88
2022-10-28T04:14:15.833Z,11.60
2022-10-28T04:16:44.215Z,11.35
2022-10-28T04:19:12.814Z,11.43
2022-10-28T04:21:42.415Z,11.95
2022-10-28T04:24:11.283Z,11.35
2022-10-28T04:26:42.808Z,12.35
2022-10-28T04:29:12.893Z,11.98
2022-10-28T04:31:41.745Z,12.25
2022-10-28T04:34:11.255Z,12.95
2022-10-28T04:36:40.149Z,11.95
2022-10-28T04:39:12.106Z,12.35
2022-10-28T04:41:43.445Z,12.05
2022-10-28T04:44:14.603Z,11.65
2022-10-28T04:46:45.139Z,11.90
2022-10-28T04:49:19.852Z,11.40
2022-10-28T04:51:50.687Z,11.75
2022-10-28T04:54:19.913Z,12.27
2022-10-28T04:56:51.229Z,11.82
2022-10-28T04:59:21.301Z,11.77
2022-10-28T05:01:50.482Z,11.43
2022-10-28T05:04:19.124Z,12.50
2022-10-28T05:06:49.150Z,12.00
2022-10-28T05:09:22.299Z,11.45
2022-10-28T05:11:54.388Z,11.63
2022-10-28T05:14:25.025Z,10.57
2022-10-28T05:16:53.779Z,10.88
2022-10-28T05:19:22.595Z,11.20
2022-10-28T05:21:51.585Z,10.93
2022-10-28T05:24:21.617Z,10.57
2022-10-28T05:26:52.393Z,10.63
2022-10-28T05:29:24.534Z,10.82
2022-10-28T05:31:53.821Z,11.00
2022-10-28T05:34:23.538Z,11.30
2022-10-28T05:36:52.725Z,9.98
2022-10-28T05:39:22.044Z,10.77
2022-10-28T05:41:52.680Z,10.77
2022-10-28T05:44:22.566Z,11.38
2022-10-28T05:46:51.817Z,11.10
2022-10-28T05:49:20.570Z,12.55
2022-10-28T05:51:49.416Z,10.38
2022-10-28T05:54:21.315Z,10.52
2022-10-28T05:56:54.994Z,10.70
2022-10-28T05:59:25.216Z,11.30
2022-10-28T06:01:55.156Z,10.73
2022-10-28T06:04:25.519Z,11.25
2022-10-28T06:06:57.401Z,10.55
2022-10-28T06:09:30.623Z,10.02
2022-10-28T06:12:00.206Z,10.60
2022-10-28T06:14:29.869Z,10.48
2022-10-28T06:17:01.812Z,9.88
2022-10-28T06:19:30.667Z,10.95
2022-10-28T06:21:59.680Z,11.40
2022-10-28T06:24:29.539Z,10.38
2022-10-28T06:27:00.075Z,9.95
2022-10-28T06:29:32.952Z,10.23
2022-10-28T06:32:02.622Z,10.23
2022-10-28T06:34:30.915Z,10.23
2022-10-28T06:37:02.362Z,9.65
2022-10-28T06:45:07.023Z,10.70
2022-10-28T06:47:41.521Z,9.18
2022-10-28T06:50:11.945Z,10.95
2022-10-28T06:52:42.614Z,9.75
2022-10-28T06:55:25.125Z,10.65
2022-10-28T06:58:18.442Z,12.75
2022-10-28T07:00:47.292Z,11.27
2022-10-28T07:03:16.353Z,10.05
2022-10-28T07:05:45.537Z,9.82
2022-10-28T07:08:16.532Z,9.02
2022-10-28T07:10:47.207Z,9.15
2022-10-28T07:13:19.211Z,9.18
2022-10-28T07:15:53.132Z,8.88
2022-10-28T07:18:22.687Z,8.27
2022-10-28T07:20:52.427Z,9.35
2022-10-28T07:23:24.481Z,9.02
2022-10-28T07:25:58.398Z,8.68
2022-10-28T07:28:29.465Z,8.65
2022-10-28T07:31:04.254Z,8.45
2022-10-28T07:33:34.164Z,8.73
2022-10-28T07:36:05.156Z,8.50
2022-10-28T07:38:34.735Z,8.55
2022-10-28T07:41:08.103Z,8.27
2022-10-28T07:43:39.979Z,8.90
2022-10-28T07:46:09.872Z,8.35
2022-10-28T07:48:40.155Z,8.05
2022-10-28T07:51:13.446Z,7.47
2022-10-28T07:53:43.133Z,7.95
2022-10-28T07:56:14.835Z,7.50
2022-10-28T07:58:47.826Z,7.50
2022-10-28T08:01:20.797Z,7.35
2022-10-28T08:03:52.530Z,7.78
2022-10-28T08:06:24.997Z,7.53
2022-10-28T08:09:03.135Z,7.00
2022-10-28T08:11:32.852Z,7.25
2022-10-28T08:14:11.773Z,6.88
2022-10-28T08:16:40.452Z,7.38
2022-10-28T08:19:10.202Z,7.10
2022-10-28T08:21:40.044Z,6.80
2022-10-28T08:24:10.748Z,7.63
2022-10-28T08:26:39.901Z,7.57
2022-10-28T08:29:13.076Z,6.63
2022-10-28T08:31:43.044Z,7.45
2022-10-28T08:34:13.436Z,6.93
2022-10-28T08:36:42.417Z,6.88
2022-10-28T08:39:11.236Z,7.32
2022-10-28T08:41:48.157Z,7.10
2022-10-28T08:44:58.364Z,6.38
2022-10-28T08:47:49.546Z,6.43
2022-10-28T08:50:22.676Z,6.40
2022-10-28T08:52:58.688Z,6.38
2022-10-28T08:55:36.005Z,6.85
2022-10-28T08:58:12.195Z,6.07
2022-10-28T09:00:46.471Z,6.80
2022-10-28T09:03:22.483Z,7.15
2022-10-28T09:06:04.428Z,7.03
2022-10-28T09:08:38.747Z,6.00
2022-10-28T09:11:37.973Z,6.10
2022-10-28T09:14:33.462Z,6.35
2022-10-28T09:17:15.785Z,6.13
2022-10-28T09:19:52.869Z,6.25
2022-10-28T09:22:35.903Z,6.40
2022-10-28T09:25:24.597Z,5.93
2022-10-28T09:28:12.155Z,5.80
2022-10-28T09:30:59.781Z,5.95
2022-10-28T09:34:02.119Z,5.32
2022-10-28T09:36:40.758Z,5.40
2022-10-28T09:39:26.789Z,5.20
2022-10-28T09:42:01.465Z,5.75
2022-10-28T09:44:46.572Z,6.63
2022-10-28T09:47:21.364Z,5.50
2022-10-28T09:49:57.710Z,6.22
2022-10-28T09:52:36.474Z,5.65
2022-10-28T09:55:20.504Z,5.40
2022-10-28T09:57:52.527Z,6.10
2022-10-28T10:00:22.783Z,5.45
2022-10-28T10:02:57.695Z,6.00
2022-10-28T10:05:33.152Z,5.22
2022-10-28T10:10:48.529Z,5.65
2022-10-28T10:13:22.097Z,5.38
2022-10-28T10:15:56.892Z,4.72
2022-10-28T10:18:33.023Z,4.88
2022-10-28T10:21:07.032Z,5.50
2022-10-28T10:26:12.429Z,4.90
2022-10-28T10:28:47.904Z,5.53
2022-10-28T10:31:23.706Z,5.18
2022-10-28T10:33:57.947Z,5.72
2022-10-28T10:36:31.727Z,5.13
2022-10-28T10:39:04.304Z,4.70
2022-10-28T10:41:38.095Z,5.00
2022-10-28T10:44:33.639Z,4.82
2022-10-28T10:47:23.168Z,5.47
2022-10-28T10:49:56.921Z,5.50
2022-10-28T10:52:29.785Z,5.07
2022-10-28T10:55:10.120Z,5.43
2022-10-28T10:57:49.174Z,4.80
2022-10-28T11:00:23.420Z,5.03
2022-10-28T11:02:56.357Z,5.40
2022-10-28T11:05:32.252Z,4.43
2022-10-28T11:08:18.764Z,4.95
2022-10-28T11:11:10.948Z,5.53
2022-10-28T11:13:46.400Z,5.70
2022-10-28T11:16:26.067Z,5.20
2022-10-28T11:19:01.906Z,4.65
2022-10-28T11:22:16.072Z,4.70
2022-10-28T11:25:28.778Z,5.03
2022-10-28T11:28:47.639Z,4.80
2022-10-28T11:31:44.960Z,5.68
2022-10-28T11:35:01.597Z,5.57
2022-10-28T11:37:51.064Z,4.85
2022-10-28T11:40:38.012Z,4.47
2022-10-28T11:43:32.297Z,4.65
2022-10-28T11:46:14.130Z,5.20
2022-10-28T11:52:09.822Z,5.30
2022-10-28T11:55:03.808Z,5.38
2022-10-28T11:58:09.086Z,5.05
2022-10-28T12:01:04.140Z,5.35
2022-10-28T12:03:57.986Z,5.07
2022-10-28T12:07:06.308Z,4.78
2022-10-28T12:10:01.180Z,5.25
2022-10-28T12:12:47.287Z,5.30
2022-10-28T12:15:34.920Z,5.60
2022-10-28T12:18:16.715Z,5.07
2022-10-28T12:20:55.300Z,5.32
2022-10-28T12:23:28.032Z,4.65
2022-10-28T12:26:09.180Z,4.80
2022-10-28T12:28:48.152Z,5.55
2022-10-28T12:31:25.785Z,5.13
2022-10-28T12:34:21.747Z,5.13
2022-10-28T12:37:03.671Z,5.30
2022-10-28T12:39:49.738Z,4.88
2022-10-28T12:42:29.877Z,5.18
2022-10-28T12:45:07.762Z,5.25
2022-10-28T12:47:44.339Z,4.95
2022-10-28T12:50:26.790Z,5.93
2022-10-28T12:53:25.019Z,5.18
2022-10-28T12:56:01.956Z,5.40
2022-10-28T12:58:37.034Z,5.95
2022-10-28T13:01:16.558Z,4.85
2022-10-28T13:03:48.653Z,5.78
2022-10-28T13:06:47.851Z,6.00
2022-10-28T13:09:54.017Z,5.22
2022-10-28T13:13:12.481Z,5.25
2022-10-28T13:16:23.736Z,5.07
2022-10-28T13:19:30.225Z,5.93
2022-10-28T13:25:10.791Z,5.00
2022-10-28T13:27:40.170Z,5.60
2022-10-28T13:30:20.166Z,5.43
2022-10-28T13:33:01.730Z,5.70
2022-10-28T13:35:32.744Z,5.82
2022-10-28T13:38:02.893Z,6.03
2022-10-28T13:41:13.400Z,5.20
2022-10-28T13:44:32.094Z,5.28
2022-10-28T13:47:27.497Z,4.88
2022-10-28T13:50:42.093Z,5.87
2022-10-28T13:53:59.609Z,5.40
2022-10-28T13:56:50.852Z,5.30
2022-10-28T13:59:31.373Z,5.38
2022-10-28T14:02:33.141Z,5.40
2022-10-28T14:05:02.143Z,6.03
2022-10-28T14:07:35.615Z,4.97
2022-10-28T14:10:24.920Z,5.57
2022-10-28T14:13:04.853Z,5.82
2022-10-28T14:15:41.023Z,5.85
2022-10-28T14:21:29.921Z,5.28
2022-10-28T14:24:40.234Z,5.50
2022-10-28T14:27:44.055Z,5.22
2022-10-28T14:30:33.330Z,5.03
2022-10-28T14:33:24.485Z,5.05
2022-10-28T14:36:34.496Z,4.90
2022-10-28T14:39:45.904Z,5.32
2022-10-28T14:42:42.975Z,5.22
2022-10-28T14:49:13.951Z,5.65
2022-10-28T14:51:46.297Z,4.97
2022-10-28T14:54:24.407Z,5.30
2022-10-28T14:56:59.651Z,5.10
2022-10-28T14:59:33.832Z,5.13
2022-10-28T15:02:14.551Z,5.03
2022-10-28T15:05:15.132Z,5.25
2022-10-28T15:07:45.741Z,5.68
2022-10-28T15:10:34.845Z,6.15
2022-10-28T15:13:07.533Z,4.45
2022-10-28T15:15:37.879Z,4.55
2022-10-28T15:18:23.918Z,5.43
2022-10-28T15:21:10.965Z,5.60
2022-10-28T15:23:41.868Z,5.45
2022-10-28T15:26:17.727Z,4.80
2022-10-28T15:28:48.424Z,5.63
2022-10-28T15:31:39.893Z,5.47
2022-10-28T15:34:24.857Z,5.10
2022-10-28T15:36:54.913Z,5.67
2022-10-28T15:39:27.002Z,5.35
2022-10-28T15:42:03.314Z,5.88
2022-10-28T15:44:39.701Z,6.72
2022-10-28T15:47:29.728Z,6.07
2022-10-28T15:50:26.877Z,5.00
2022-10-28T15:53:18.999Z,5.18
2022-10-28T15:56:06.670Z,5.20
2022-10-28T15:58:40.422Z,5.28
2022-10-28T16:07:48.048Z,6.97
2022-10-28T16:10:17.491Z,5.30
2022-10-28T16:15:51.024Z,5.88
2022-10-28T16:18:23.055Z,4.93
2022-10-28T16:20:52.606Z,4.47
2022-10-28T16:23:25.085Z,4.65
2022-10-28T16:25:58.850Z,4.55
2022-10-28T16:28:28.769Z,5.50
2022-10-28T16:31:00.556Z,5.30
2022-10-28T16:33:34.296Z,9.80
2022-10-28T16:36:04.029Z,17.50
2022-10-28T16:38:32.692Z,20.08
2022-10-28T16:41:02.801Z,6.32
2022-10-28T16:43:33.196Z,5.05
2022-10-28T16:46:03.057Z,5.38
2022-10-28T16:48:33.189Z,5.30
2022-10-28T16:51:10.354Z,4.93
2022-10-28T16:53:39.056Z,5.30
2022-10-28T16:56:13.741Z,5.10
2022-10-28T16:58:46.553Z,6.43
2022-10-28T17:01:28.353Z,10.35
2022-10-28T17:04:42.086Z,8.23
2022-10-28T17:07:16.395Z,5.78
2022-10-28T17:09:45.433Z,5.47
2022-10-28T17:12:18.262Z,5.18
2022-10-28T17:14:47.462Z,5.00
2022-10-28T17:17:16.155Z,4.97
2022-10-28T17:19:46.710Z,5.43
2022-10-28T17:22:17.822Z,4.90
2022-10-28T17:24:46.531Z,4.63
2022-10-28T17:27:15.191Z,4.15
2022-10-28T17:29:44.218Z,3.85
2022-10-28T17:32:14.256Z,4.03
2022-10-28T17:34:43.628Z,4.50
2022-10-28T17:37:13.829Z,4.07
2022-10-28T17:39:45.290Z,4.18
2022-10-28T17:42:14.395Z,4.07
2022-10-28T17:44:44.920Z,4.63
2022-10-28T17:47:16.067Z,4.00
2022-10-28T17:49:47.880Z,3.88
2022-10-28T17:52:17.327Z,3.53
2022-10-28T17:55:11.790Z,4.22
2022-10-28T17:57:40.905Z,4.05
2022-10-28T18:00:12.424Z,4.10
2022-10-28T18:02:41.388Z,3.55
2022-10-28T18:05:12.579Z,3.83
2022-10-28T18:07:42.447Z,4.35
2022-10-28T18:10:14.341Z,6.03
2022-10-28T18:12:47.901Z,4.53
2022-10-28T18:15:18.986Z,5.00
2022-10-28T18:17:52.211Z,3.63
2022-10-28T18:20:21.635Z,3.60
2022-10-28T18:22:51.513Z,3.40
2022-10-28T18:25:25.232Z,4.30
2022-10-28T18:28:00.329Z,4.10
2022-10-28T18:30:29.743Z,3.95
2022-10-28T18:33:00.813Z,3.50
2022-10-28T18:35:41.332Z,3.80
2022-10-28T18:38:12.161Z,3.70
2022-10-28T18:40:49.372Z,3.38
2022-10-28T18:43:21.731Z,3.22
2022-10-28T18:45:51.941Z,5.45
2022-10-28T18:48:22.685Z,4.70
2022-10-28T18:50:58.424Z,3.63
2022-10-28T18:53:34.746Z,4.40
2022-10-28T18:56:27.682Z,4.07
2022-10-28T18:59:00.638Z,3.88
2022-10-28T19:01:32.727Z,4.20
2022-10-28T19:04:09.160Z,4.00
2022-10-28T19:06:55.039Z,3.95
2022-10-28T19:09:40.200Z,3.40
2022-10-28T19:15:29.848Z,3.92
2022-10-28T19:18:05.963Z,3.75
2022-10-28T19:20:39.288Z,3.30
2022-10-28T19:23:12.812Z,3.65
2022-10-28T19:25:47.176Z,3.90
2022-10-28T19:28:22.134Z,3.30
2022-10-28T19:31:03.292Z,2.97
2022-10-28T19:33:35.004Z,4.35
2022-10-28T19:36:10.108Z,5.60
2022-10-28T19:38:50.670Z,6.20
2022-10-28T19:41:23.943Z,4.95
2022-10-28T19:44:01.669Z,6.03
2022-10-28T19:46:35.896Z,5.25
2022-10-28T19:49:12.618Z,4.15
2022-10-28T19:51:46.284Z,3.95
2022-10-28T19:54:18.193Z,4.43
2022-10-28T19:56:50.908Z,4.72
2022-10-28T19:59:22.517Z,4.05
2022-10-28T20:01:58.575Z,5.43
2022-10-28T20:04:33.668Z,4.40
2022-10-28T20:07:05.514Z,4.53
2022-10-28T20:09:38.428Z,4.60
2022-10-28T20:12:10.658Z,4.07
2022-10-28T20:14:47.140Z,4.15
2022-10-28T20:17:18.368Z,4.35
2022-10-28T20:19:55.027Z,3.70
2022-10-28T20:22:32.725Z,4.47
2022-10-28T20:25:16.933Z,4.35
2022-10-28T20:27:53.992Z,3.70
2022-10-28T20:30:26.930Z,3.72
2022-10-28T20:33:01.505Z,4.05
2022-10-28T20:35:35.359Z,6.80
2022-10-28T20:40:36.829Z,5.40
2022-10-28T20:43:05.204Z,6.45
2022-10-28T20:45:35.820Z,4.55
2022-10-28T20:48:04.353Z,4.75
2022-10-28T20:50:33.702Z,4.80
2022-10-28T20:53:04.423Z,4.35
2022-10-28T20:55:34.869Z,5.38
2022-10-28T20:58:03.695Z,5.13
2022-10-28T21:00:32.648Z,7.80
2022-10-28T21:03:03.647Z,6.28
2022-10-28T21:05:35.173Z,5.40
2022-10-28T21:13:52.477Z,8.77
2022-10-28T21:16:23.120Z,7.25
2022-10-28T21:18:54.670Z,7.20
2022-10-28T21:21:25.931Z,7.05
2022-10-28T21:23:55.815Z,6.03
2022-10-28T21:26:27.495Z,5.78
2022-10-28T21:28:58.138Z,5.65
2022-10-28T21:31:27.969Z,4.78
2022-10-28T21:34:00.734Z,6.53
2022-10-28T21:36:32.886Z,11.38
2022-10-28T21:39:02.795Z,11.40
2022-10-28T21:41:32.679Z,8.20
2022-10-28T21:44:05.934Z,7.05
2022-10-28T21:46:36.625Z,7.15
2022-10-28T21:49:06.596Z,6.45
2022-10-28T21:51:36.533Z,6.25
2022-10-28T21:54:05.695Z,6.90
2022-10-28T21:56:38.789Z,6.68
2022-10-28T21:59:10.476Z,6.55
2022-10-28T22:01:39.426Z,6.65
2022-10-28T22:04:09.957Z,6.25
2022-10-28T22:06:39.133Z,6.47
2022-10-28T22:09:08.763Z,6.15
2022-10-28T22:11:37.909Z,6.38
2022-10-28T22:14:09.457Z,6.78
2022-10-28T22:16:38.347Z,6.60
2022-10-28T22:19:09.951Z,6.65
2022-10-28T22:21:40.643Z,5.82
2022-10-28T22:24:10.901Z,6.35
2022-10-28T22:26:39.643Z,6.43
2022-10-28T22:29:10.054Z,6.72
2022-10-28T22:31:38.661Z,6.28
2022-10-28T22:34:07.835Z,6.55
2022-10-28T22:36:39.356Z,6.25
2022-10-28T22:39:08.998Z,6.78
2022-10-28T22:41:37.938Z,5.75
2022-10-28T22:44:07.817Z,6.07
2022-10-28T22:46:37.164Z,7.25
2022-10-28T22:49:06.821Z,6.28
2022-10-28T22:51:43.166Z,6.57
2022-10-28T22:54:12.057Z,6.88
2022-10-28T22:56:45.517Z,6.45
2022-10-28T22:59:15.975Z,6.97
2022-10-28T23:01:44.835Z,7.20
2022-10-28T23:04:16.725Z,8.00
2022-10-28T23:06:46.650Z,7.10
2022-10-28T23:09:20.547Z,6.95
2022-10-28T23:11:49.166Z,6.35
2022-10-28T23:14:18.182Z,7.93
2022-10-28T23:16:48.445Z,7.32
2022-10-28T23:19:17.245Z,7.45
2022-10-28T23:21:50.968Z,7.28
2022-10-28T23:24:20.377Z,8.15
2022-10-28T23:26:48.765Z,7.78
2022-10-28T23:29:19.163Z,7.47
2022-10-28T23:31:49.025Z,7.47
2022-10-28T23:34:21.870Z,17.77
2022-10-28T23:36:54.247Z,10.32
2022-10-28T23:39:22.924Z,10.23
2022-10-28T23:41:51.941Z,10.23
2022-10-28T23:44:21.078Z,10.32
2022-10-28T23:46:49.524Z,10.18
2022-10-28T23:49:17.875Z,8.52
2022-10-28T23:51:48.742Z,7.15
2022-10-28T23:54:19.712Z,8.07
2022-10-28T23:56:49.127Z,9.15
2022-10-28T23:59:19.865Z,8.63
